createdAt,value
2019-02-09T00:01:02.326Z,3.12
2019-02-09T00:03:50.472Z,2.70
2019-02-09T00:06:39.262Z,3.00
2019-02-09T00:09:27.982Z,3.02
2019-02-09T00:12:17.158Z,2.85
2019-02-09T00:15:27.223Z,2.65
2019-02-09T00:18:17.224Z,2.55
2019-02-09T00:21:06.868Z,2.40
2019-02-09T00:23:55.938Z,2.75
2019-02-09T00:26:44.790Z,2.60
2019-02-09T00:29:33.263Z,4.08
2019-02-09T00:32:23.524Z,3.90
2019-02-09T00:35:12.513Z,2.40
2019-02-09T00:38:01.660Z,2.25
2019-02-09T00:40:50.306Z,3.00
2019-02-09T00:43:38.822Z,6.05
2019-02-09T00:46:27.490Z,5.87
2019-02-09T00:49:16.780Z,4.67
2019-02-09T00:52:05.328Z,7.17
2019-02-09T00:54:54.478Z,7.62
2019-02-09T00:57:43.148Z,6.60
2019-02-09T01:00:32.229Z,6.53
2019-02-09T01:03:20.668Z,7.83
2019-02-09T01:06:09.582Z,6.60
2019-02-09T01:08:58.362Z,5.00
2019-02-09T01:11:46.480Z,3.98
2019-02-09T01:14:36.406Z,3.47
2019-02-09T01:17:25.258Z,3.40
2019-02-09T01:20:17.824Z,3.10
2019-02-09T01:23:06.292Z,2.87
2019-02-09T01:25:55.099Z,2.45
2019-02-09T01:28:43.714Z,2.35
2019-02-09T01:31:31.886Z,2.30
2019-02-09T01:34:20.701Z,2.17
2019-02-09T01:37:09.981Z,2.05
2019-02-09T01:39:59.208Z,2.08
2019-02-09T01:42:48.130Z,2.30
2019-02-09T01:45:36.862Z,1.87
2019-02-09T01:48:25.804Z,2.55
2019-02-09T01:51:14.566Z,2.70
2019-02-09T01:54:04.102Z,2.72
2019-02-09T01:56:52.935Z,3.00
2019-02-09T01:59:41.823Z,2.80
2019-02-09T02:02:30.932Z,2.42
2019-02-09T02:05:21.374Z,3.20
2019-02-09T02:08:11.375Z,2.77
2019-02-09T02:11:00.498Z,2.98
2019-02-09T02:13:49.152Z,2.40
2019-02-09T02:16:38.010Z,2.15
2019-02-09T02:19:26.880Z,2.60
2019-02-09T02:22:15.355Z,2.87
2019-02-09T02:25:05.716Z,2.77
2019-02-09T02:27:54.708Z,2.02
2019-02-09T02:30:43.916Z,1.90
2019-02-09T02:33:32.559Z,2.30
2019-02-09T02:36:21.714Z,1.90
2019-02-09T02:39:11.160Z,1.98
2019-02-09T02:42:00.143Z,2.30
2019-02-09T02:44:48.500Z,1.90
2019-02-09T02:47:37.571Z,1.52
2019-02-09T02:50:26.447Z,1.60
2019-02-09T02:53:16.557Z,1.50
2019-02-09T02:56:05.641Z,1.40
2019-02-09T02:58:54.494Z,1.85
2019-02-09T03:01:43.473Z,1.15
2019-02-09T03:04:32.109Z,1.50
2019-02-09T03:07:20.473Z,1.10
2019-02-09T03:10:09.808Z,1.22
2019-02-09T03:12:58.877Z,1.10
2019-02-09T03:15:47.506Z,1.32
2019-02-09T03:18:36.319Z,1.60
2019-02-09T03:21:25.526Z,1.50
2019-02-09T03:24:13.930Z,1.52
2019-02-09T03:27:03.384Z,1.55
2019-02-09T03:29:52.289Z,1.98
2019-02-09T03:32:41.201Z,1.80
2019-02-09T03:35:29.812Z,2.20
2019-02-09T03:38:18.520Z,1.82
2019-02-09T03:41:06.924Z,2.27
2019-02-09T03:43:55.145Z,1.70
2019-02-09T03:46:44.328Z,2.15
2019-02-09T03:49:32.901Z,1.80
2019-02-09T03:52:22.238Z,1.65
2019-02-09T03:55:10.796Z,1.80
2019-02-09T03:57:59.114Z,1.40
2019-02-09T04:00:55.297Z,1.57
2019-02-09T04:03:37.936Z,1.63
2019-02-09T04:06:26.925Z,1.40
2019-02-09T04:09:16.260Z,1.60
2019-02-09T04:12:05.519Z,1.50
2019-02-09T04:14:53.882Z,1.50
2019-02-09T04:17:42.353Z,1.40
2019-02-09T04:20:31.171Z,1.20
2019-02-09T04:23:19.982Z,1.50
2019-02-09T04:26:08.545Z,1.40
2019-02-09T04:28:57.169Z,1.30
2019-02-09T04:31:45.311Z,1.50
2019-02-09T04:34:33.905Z,1.40
2019-02-09T04:37:22.725Z,1.17
2019-02-09T04:40:14.020Z,1.30
2019-02-09T04:43:03.984Z,1.10
2019-02-09T04:45:52.692Z,1.25
2019-02-09T04:48:40.986Z,1.17
2019-02-09T04:51:29.927Z,1.17
2019-02-09T04:54:18.872Z,1.15
2019-02-09T04:57:07.334Z,1.10
2019-02-09T04:59:56.266Z,1.07
2019-02-09T05:02:45.067Z,1.40
2019-02-09T05:05:33.160Z,1.00
2019-02-09T05:08:21.899Z,1.00
2019-02-09T05:11:10.167Z,1.50
2019-02-09T05:13:59.221Z,0.78
2019-02-09T05:16:48.403Z,1.30
2019-02-09T05:19:36.873Z,1.50
2019-02-09T05:22:25.845Z,1.20
2019-02-09T05:25:15.587Z,1.17
2019-02-09T05:28:04.307Z,1.45
2019-02-09T05:30:52.772Z,1.10
2019-02-09T05:33:41.482Z,1.03
2019-02-09T05:36:30.035Z,0.95
2019-02-09T05:39:18.527Z,1.32
2019-02-09T05:42:07.370Z,1.30
2019-02-09T05:44:55.655Z,1.00
2019-02-09T05:47:44.654Z,1.40
2019-02-09T05:50:32.945Z,1.55
2019-02-09T05:53:21.514Z,1.17
2019-02-09T05:56:10.245Z,0.95
2019-02-09T05:58:59.300Z,1.20
2019-02-09T06:01:47.970Z,1.15
2019-02-09T06:04:36.451Z,1.20
2019-02-09T06:07:25.168Z,0.93
2019-02-09T06:10:16.699Z,0.90
2019-02-09T06:13:06.177Z,0.88
2019-02-09T06:15:54.858Z,0.75
2019-02-09T06:18:43.737Z,0.60
2019-02-09T06:21:32.779Z,1.00
2019-02-09T06:24:21.231Z,0.70
2019-02-09T06:27:09.759Z,0.72
2019-02-09T06:29:58.325Z,0.85
2019-02-09T06:32:47.003Z,0.80
2019-02-09T06:35:35.827Z,0.60
2019-02-09T06:38:24.854Z,1.30
2019-02-09T06:41:13.786Z,1.10
2019-02-09T06:44:02.662Z,1.07
2019-02-09T06:46:51.576Z,0.95
2019-02-09T06:49:40.873Z,1.20
2019-02-09T06:52:31.389Z,0.90
2019-02-09T06:55:20.590Z,0.85
2019-02-09T06:58:09.391Z,1.12
2019-02-09T07:00:57.991Z,1.02
2019-02-09T07:03:46.843Z,1.00
2019-02-09T07:06:35.292Z,0.70
2019-02-09T07:09:23.858Z,0.88
2019-02-09T07:12:12.827Z,0.75
2019-02-09T07:15:01.850Z,0.90
2019-02-09T07:17:50.151Z,0.80
2019-02-09T07:20:39.294Z,1.10
2019-02-09T07:23:30.780Z,1.30
2019-02-09T07:26:19.706Z,0.80
2019-02-09T07:29:08.663Z,0.80
2019-02-09T07:31:57.879Z,1.10
2019-02-09T07:34:46.365Z,0.90
2019-02-09T07:37:35.160Z,1.10
2019-02-09T07:40:24.246Z,1.12
2019-02-09T07:43:12.715Z,0.78
2019-02-09T07:46:01.400Z,0.90
2019-02-09T07:48:50.635Z,1.00
2019-02-09T07:51:39.288Z,0.98
2019-02-09T07:54:28.056Z,1.25
2019-02-09T07:57:16.245Z,1.20
2019-02-09T08:00:08.853Z,1.20
2019-02-09T08:02:57.702Z,1.10
2019-02-09T08:05:46.044Z,1.20
2019-02-09T08:08:34.836Z,1.15
2019-02-09T08:11:24.071Z,1.15
2019-02-09T08:14:12.955Z,1.10
2019-02-09T08:17:01.978Z,1.40
2019-02-09T08:19:50.551Z,1.33
2019-02-09T08:22:39.655Z,1.70
2019-02-09T08:25:30.339Z,1.40
2019-02-09T08:28:19.521Z,1.00
2019-02-09T08:31:08.640Z,1.60
2019-02-09T08:33:57.240Z,1.10
2019-02-09T08:36:45.837Z,0.95
2019-02-09T08:39:34.445Z,1.10
2019-02-09T08:42:24.250Z,1.10
2019-02-09T08:45:17.265Z,0.72
2019-02-09T08:48:06.153Z,0.95
2019-02-09T08:51:00.201Z,1.05
2019-02-09T08:53:49.268Z,1.50
2019-02-09T08:56:38.170Z,2.87
2019-02-09T08:59:26.331Z,1.95
2019-02-09T09:02:20.458Z,1.10
2019-02-09T09:05:09.702Z,1.03
2019-02-09T09:07:56.761Z,1.12
2019-02-09T09:10:45.650Z,1.22
2019-02-09T09:13:34.828Z,1.00
2019-02-09T09:16:23.094Z,1.00
2019-02-09T09:19:12.176Z,1.30
2019-02-09T09:22:01.372Z,1.70
2019-02-09T09:24:50.688Z,1.30
2019-02-09T09:27:39.444Z,1.17
2019-02-09T09:30:28.442Z,1.20
2019-02-09T09:33:17.144Z,0.65
2019-02-09T09:36:05.910Z,1.20
2019-02-09T09:38:54.905Z,0.85
2019-02-09T09:41:43.909Z,1.20
2019-02-09T09:44:32.668Z,0.85
2019-02-09T09:47:21.646Z,1.07
2019-02-09T09:50:12.885Z,1.10
2019-02-09T09:53:01.333Z,1.20
2019-02-09T09:55:50.137Z,0.90
2019-02-09T09:58:39.128Z,1.55
2019-02-09T10:01:27.472Z,0.70
2019-02-09T10:04:16.600Z,0.90
2019-02-09T10:07:04.789Z,1.05
2019-02-09T10:09:54.001Z,1.07
2019-02-09T10:12:43.545Z,1.30
2019-02-09T10:15:31.754Z,1.32
2019-02-09T10:18:19.900Z,1.00
2019-02-09T10:21:08.556Z,0.90
2019-02-09T10:23:57.393Z,1.17
2019-02-09T10:26:46.396Z,1.30
2019-02-09T10:29:34.827Z,1.10
2019-02-09T10:32:23.953Z,1.10
2019-02-09T10:35:12.784Z,1.40
2019-02-09T10:38:01.316Z,1.12
2019-02-09T10:40:50.266Z,0.90
2019-02-09T10:43:40.883Z,1.30
2019-02-09T10:46:29.747Z,1.00
2019-02-09T10:49:18.650Z,1.20
2019-02-09T10:52:07.593Z,1.15
2019-02-09T10:54:56.015Z,1.20
2019-02-09T10:57:45.093Z,1.10
2019-02-09T11:00:43.395Z,0.78
2019-02-09T11:03:32.367Z,1.40
2019-02-09T11:06:21.214Z,1.35
2019-02-09T11:09:17.361Z,1.17
2019-02-09T11:12:06.799Z,0.90
2019-02-09T11:14:55.548Z,1.20
2019-02-09T11:17:45.033Z,0.90
2019-02-09T11:20:33.610Z,1.40
2019-02-09T11:23:27.420Z,1.20
2019-02-09T11:26:16.603Z,1.30
2019-02-09T11:29:05.706Z,1.15
2019-02-09T11:31:55.461Z,1.42
2019-02-09T11:34:44.689Z,1.60
2019-02-09T11:37:33.367Z,1.30
2019-02-09T11:40:22.243Z,1.52
2019-02-09T11:43:11.095Z,1.20
2019-02-09T11:46:00.198Z,0.95
2019-02-09T11:48:50.001Z,0.97
2019-02-09T11:51:38.486Z,1.33
2019-02-09T11:54:27.184Z,1.20
2019-02-09T11:57:15.862Z,1.30
2019-02-09T12:00:05.547Z,1.40
2019-02-09T12:03:02.137Z,1.20
2019-02-09T12:05:45.329Z,1.20
2019-02-09T12:08:35.706Z,0.83
2019-02-09T12:11:24.463Z,1.13
2019-02-09T12:14:13.242Z,1.30
2019-02-09T12:17:01.927Z,1.20
2019-02-09T12:19:51.010Z,1.50
2019-02-09T12:22:40.397Z,1.30
2019-02-09T12:25:31.649Z,1.50
2019-02-09T12:28:20.125Z,1.30
2019-02-09T12:31:09.031Z,0.90
2019-02-09T12:33:58.784Z,1.30
2019-02-09T12:36:47.937Z,1.43
2019-02-09T12:39:36.736Z,1.17
2019-02-09T12:42:25.461Z,1.30
2019-02-09T12:45:16.840Z,1.20
2019-02-09T12:48:07.327Z,1.13
2019-02-09T12:50:55.682Z,1.40
2019-02-09T12:53:44.631Z,1.40
2019-02-09T12:56:33.112Z,1.33
2019-02-09T12:59:22.144Z,1.40
2019-02-09T13:02:10.877Z,1.70
2019-02-09T13:04:59.547Z,1.30
2019-02-09T13:07:48.615Z,1.13
2019-02-09T13:10:36.895Z,1.47
2019-02-09T13:13:25.279Z,1.30
2019-02-09T13:16:13.976Z,1.50
2019-02-09T13:19:02.929Z,1.30
2019-02-09T13:21:51.688Z,1.70
2019-02-09T13:24:40.132Z,1.33
2019-02-09T13:27:29.003Z,1.50
2019-02-09T13:30:20.719Z,1.60
2019-02-09T13:33:08.893Z,1.67
2019-02-09T13:35:57.539Z,1.55
2019-02-09T13:38:46.133Z,1.60
2019-02-09T13:41:35.463Z,1.50
2019-02-09T13:44:24.506Z,1.57
2019-02-09T13:47:12.850Z,1.05
2019-02-09T13:50:01.785Z,1.37
2019-02-09T13:52:50.406Z,1.35
2019-02-09T13:55:38.697Z,1.85
2019-02-09T13:58:27.422Z,1.40
2019-02-09T14:01:16.505Z,1.40
2019-02-09T14:04:05.565Z,1.63
2019-02-09T14:06:54.052Z,1.10
2019-02-09T14:09:43.090Z,1.70
2019-02-09T14:12:32.019Z,1.12
2019-02-09T14:15:22.755Z,1.20
2019-02-09T14:18:11.751Z,1.90
2019-02-09T14:21:00.709Z,1.25
2019-02-09T14:23:50.063Z,1.35
2019-02-09T14:26:38.746Z,1.15
2019-02-09T14:29:29.571Z,1.05
2019-02-09T14:32:22.611Z,1.20
2019-02-09T14:35:13.899Z,1.00
2019-02-09T14:38:02.611Z,1.22
2019-02-09T14:40:51.708Z,1.20
2019-02-09T14:43:41.944Z,1.35
2019-02-09T14:46:30.844Z,1.20
2019-02-09T14:49:20.212Z,0.77
2019-02-09T14:52:13.836Z,1.05
2019-02-09T14:55:03.407Z,1.17
2019-02-09T14:57:52.666Z,1.15
2019-02-09T15:00:44.146Z,11.70
2019-02-09T15:03:33.332Z,2.95
2019-02-09T15:06:22.221Z,1.02
2019-02-09T15:09:11.710Z,1.00
2019-02-09T15:12:00.787Z,1.30
2019-02-09T15:14:49.649Z,1.32
2019-02-09T15:17:40.281Z,1.32
2019-02-09T15:20:32.124Z,1.37
2019-02-09T15:23:21.000Z,1.30
2019-02-09T15:26:09.637Z,1.42
2019-02-09T15:28:58.755Z,1.10
2019-02-09T15:31:47.434Z,1.30
2019-02-09T15:34:36.325Z,1.33
2019-02-09T15:37:25.236Z,1.52
2019-02-09T15:40:16.668Z,1.22
2019-02-09T15:43:05.358Z,2.30
2019-02-09T15:45:53.967Z,1.30
2019-02-09T15:48:42.917Z,1.02
2019-02-09T15:51:32.077Z,1.10
2019-02-09T15:54:21.034Z,1.25
2019-02-09T15:57:09.477Z,1.00
2019-02-09T15:59:59.811Z,1.57
2019-02-09T16:02:51.101Z,1.20
2019-02-09T16:05:40.076Z,1.20
2019-02-09T16:08:29.439Z,1.20
2019-02-09T16:11:20.361Z,1.00
2019-02-09T16:14:14.035Z,1.60
2019-02-09T16:17:03.328Z,1.20
2019-02-09T16:19:52.531Z,0.80
2019-02-09T16:22:41.918Z,3.30
2019-02-09T16:25:31.288Z,5.60
2019-02-09T16:28:23.329Z,6.17
2019-02-09T16:31:11.756Z,5.75
2019-02-09T16:34:00.183Z,3.73
2019-02-09T16:36:53.936Z,2.58
2019-02-09T16:39:42.407Z,5.53
2019-02-09T16:42:31.236Z,3.72
2019-02-09T16:45:31.311Z,6.30
2019-02-09T16:48:19.841Z,5.45
2019-02-09T16:51:09.200Z,4.37
2019-02-09T16:53:58.606Z,3.12
2019-02-09T16:56:47.966Z,3.35
2019-02-09T16:59:36.967Z,5.97
2019-02-09T17:02:26.045Z,3.45
2019-02-09T17:05:15.253Z,3.00
2019-02-09T17:08:04.896Z,3.35
2019-02-09T17:10:56.478Z,2.83
2019-02-09T17:13:46.137Z,1.85
2019-02-09T17:16:35.444Z,9.85
2019-02-09T17:19:27.891Z,2.80
2019-02-09T17:22:20.110Z,1.80
2019-02-09T17:25:10.324Z,1.57
2019-02-09T17:27:59.676Z,1.30
2019-02-09T17:30:48.536Z,1.40
2019-02-09T17:33:38.195Z,1.23
2019-02-09T17:36:27.437Z,3.80
2019-02-09T17:39:16.788Z,1.35
2019-02-09T17:42:06.466Z,1.45
2019-02-09T17:44:55.656Z,1.10
2019-02-09T17:47:44.464Z,1.25
2019-02-09T17:50:33.784Z,1.40
2019-02-09T17:53:22.193Z,1.17
2019-02-09T17:56:11.127Z,1.27
2019-02-09T17:59:00.440Z,1.42
2019-02-09T18:01:49.711Z,1.60
2019-02-09T18:04:38.259Z,1.77
2019-02-09T18:07:27.232Z,2.27
2019-02-09T18:10:16.685Z,1.00
2019-02-09T18:13:04.937Z,2.10
2019-02-09T18:15:53.693Z,2.02
2019-02-09T18:18:42.337Z,1.70
2019-02-09T18:21:31.265Z,1.92
2019-02-09T18:24:20.097Z,1.60
2019-02-09T18:27:08.302Z,1.50
2019-02-09T18:29:57.391Z,1.70
2019-02-09T18:32:46.046Z,1.87
2019-02-09T18:35:34.882Z,1.60
2019-02-09T18:38:23.099Z,1.20
2019-02-09T18:41:11.537Z,1.60
2019-02-09T18:44:00.360Z,2.05
2019-02-09T18:46:49.683Z,1.10
2019-02-09T18:49:38.588Z,1.27
2019-02-09T18:52:27.567Z,2.27
2019-02-09T18:55:23.965Z,2.17
2019-02-09T18:58:12.944Z,2.37
2019-02-09T19:01:01.595Z,4.22
2019-02-09T19:03:50.773Z,2.73
2019-02-09T19:06:39.758Z,3.22
2019-02-09T19:09:28.483Z,1.60
2019-02-09T19:12:17.325Z,5.47
2019-02-09T19:15:07.535Z,2.17
2019-02-09T19:17:56.135Z,1.55
2019-02-09T19:20:48.079Z,2.50
2019-02-09T19:23:36.931Z,1.80
2019-02-09T19:26:26.738Z,1.30
2019-02-09T19:29:15.090Z,3.52
2019-02-09T19:32:04.300Z,1.90
2019-02-09T19:34:53.310Z,2.43
2019-02-09T19:37:42.546Z,5.50
2019-02-09T19:40:31.089Z,1.62
2019-02-09T19:43:20.085Z,1.50
2019-02-09T19:46:09.740Z,1.20
2019-02-09T19:48:58.778Z,2.67
2019-02-09T19:51:47.605Z,1.10
2019-02-09T19:54:37.025Z,1.50
2019-02-09T19:57:25.866Z,1.32
2019-02-09T20:00:36.236Z,1.40
2019-02-09T20:03:24.948Z,2.35
2019-02-09T20:06:13.893Z,1.05
2019-02-09T20:09:04.461Z,1.62
2019-02-09T20:11:53.154Z,1.30
2019-02-09T20:14:42.078Z,1.20
2019-02-09T20:17:30.879Z,1.47
2019-02-09T20:20:20.445Z,3.13
2019-02-09T20:23:09.659Z,2.75
2019-02-09T20:25:58.953Z,1.40
2019-02-09T20:28:48.224Z,2.40
2019-02-09T20:31:37.262Z,2.95
2019-02-09T20:34:25.828Z,2.90
2019-02-09T20:37:14.487Z,1.75
2019-02-09T20:40:05.599Z,1.87
2019-02-09T20:43:01.499Z,1.45
2019-02-09T20:45:44.430Z,0.85
2019-02-09T20:48:34.496Z,0.93
2019-02-09T20:51:23.987Z,1.02
2019-02-09T20:54:13.181Z,1.10
2019-02-09T20:57:02.534Z,0.90
2019-02-09T20:59:51.637Z,1.30
2019-02-09T21:02:39.892Z,0.80
2019-02-09T21:05:36.005Z,1.33
2019-02-09T21:08:20.236Z,1.98
2019-02-09T21:11:09.518Z,1.10
2019-02-09T21:13:57.802Z,1.50
2019-02-09T21:16:51.816Z,2.20
2019-02-09T21:19:37.772Z,1.37
2019-02-09T21:22:26.871Z,1.55
2019-02-09T21:25:24.717Z,1.37
2019-02-09T21:28:13.273Z,1.55
2019-02-09T21:31:02.194Z,1.10
2019-02-09T21:33:51.089Z,3.00
2019-02-09T21:36:40.047Z,4.20
2019-02-09T21:39:33.747Z,1.20
2019-02-09T21:42:19.280Z,0.78
2019-02-09T21:45:09.057Z,1.05
2019-02-09T21:47:58.286Z,0.82
2019-02-09T21:50:47.319Z,1.60
2019-02-09T21:53:35.573Z,1.75
2019-02-09T21:56:25.802Z,1.10
2019-02-09T21:59:14.774Z,1.00
2019-02-09T22:02:03.640Z,1.67
2019-02-09T22:04:52.003Z,1.30
2019-02-09T22:07:40.648Z,1.47
2019-02-09T22:10:33.848Z,1.32
2019-02-09T22:13:20.370Z,1.40
2019-02-09T22:16:09.314Z,1.40
2019-02-09T22:18:58.198Z,1.47
2019-02-09T22:21:47.430Z,1.20
2019-02-09T22:24:36.548Z,2.60
2019-02-09T22:27:24.786Z,1.57
2019-02-09T22:30:16.200Z,2.80
2019-02-09T22:33:04.788Z,1.65
2019-02-09T22:35:59.803Z,0.90
2019-02-09T22:38:44.551Z,1.10
2019-02-09T22:41:33.697Z,1.40
2019-02-09T22:44:23.068Z,0.90
2019-02-09T22:47:11.644Z,1.10
2019-02-09T22:50:00.422Z,3.30
2019-02-09T22:52:49.216Z,1.90
2019-02-09T22:55:37.389Z,1.77
2019-02-09T22:58:26.228Z,2.42
2019-02-09T23:01:40.928Z,2.52
2019-02-09T23:04:47.533Z,1.62
2019-02-09T23:07:36.533Z,2.10
2019-02-09T23:10:25.125Z,1.00
2019-02-09T23:13:13.908Z,1.00
2019-02-09T23:16:02.951Z,0.80
2019-02-09T23:18:51.373Z,0.87
2019-02-09T23:21:40.508Z,0.75
2019-02-09T23:24:29.320Z,1.17
2019-02-09T23:27:18.093Z,0.90
2019-02-09T23:30:10.567Z,1.47
2019-02-09T23:32:59.494Z,0.90
2019-02-09T23:35:47.988Z,1.35
2019-02-09T23:38:36.518Z,1.00
2019-02-09T23:41:25.438Z,1.07
2019-02-09T23:44:14.237Z,1.22
2019-02-09T23:47:02.527Z,1.05
2019-02-09T23:49:51.241Z,1.07
2019-02-09T23:52:39.388Z,2.92
2019-02-09T23:55:28.195Z,5.78
2019-02-09T23:58:16.914Z,12.33
